createdAt,value
2019-04-06T00:05:23.033Z,36.47
2019-04-06T00:08:06.824Z,36.27
2019-04-06T00:10:40.796Z,33.48
2019-04-06T00:13:13.298Z,31.13
2019-04-06T00:15:57.536Z,29.76
2019-04-06T00:18:41.547Z,23.33
2019-04-06T00:21:25.651Z,19.70
2019-04-06T00:23:58.081Z,17.90
2019-04-06T00:26:42.701Z,20.20
2019-04-06T00:29:30.936Z,22.33
2019-04-06T00:35:23.690Z,21.82
2019-04-06T00:38:07.449Z,23.55
2019-04-06T00:40:51.440Z,25.00
2019-04-06T00:43:39.316Z,25.13
2019-04-06T00:46:26.864Z,25.70
2019-04-06T00:49:12.138Z,27.93
2019-04-06T00:51:56.287Z,30.20
2019-04-06T00:54:40.365Z,30.30
2019-04-06T00:57:28.083Z,31.33
2019-04-06T01:00:12.499Z,33.93
2019-04-06T01:02:57.941Z,33.63
2019-04-06T01:05:42.554Z,37.50
2019-04-06T01:08:27.263Z,35.73
2019-04-06T01:11:10.749Z,36.53
2019-04-06T01:13:54.410Z,36.90
2019-04-06T01:16:26.735Z,37.97
2019-04-06T01:19:11.240Z,35.80
2019-04-06T01:21:55.542Z,38.73
2019-04-06T01:24:39.141Z,39.07
2019-04-06T01:27:22.965Z,39.10
2019-04-06T01:30:08.875Z,38.98
2019-04-06T01:32:52.556Z,40.83
2019-04-06T01:35:41.557Z,40.70
2019-04-06T01:38:26.153Z,39.73
2019-04-06T01:41:10.539Z,39.13
2019-04-06T01:43:54.510Z,42.93
2019-04-06T01:46:39.656Z,39.57
2019-04-06T01:49:23.214Z,39.10
2019-04-06T01:51:55.862Z,38.97
2019-04-06T01:54:40.268Z,37.53
2019-04-06T01:57:24.334Z,36.03
2019-04-06T02:00:09.210Z,35.27
2019-04-06T02:02:53.623Z,33.03
2019-04-06T02:05:37.212Z,31.70
2019-04-06T02:08:21.671Z,32.07
2019-04-06T02:10:54.074Z,32.17
2019-04-06T02:13:48.999Z,35.57
2019-04-06T02:16:32.940Z,37.53
2019-04-06T02:19:18.275Z,42.03
2019-04-06T02:22:04.408Z,39.33
2019-04-06T02:24:48.783Z,40.07
2019-04-06T02:27:32.736Z,40.43
2019-04-06T02:33:45.482Z,42.63
2019-04-06T02:36:52.600Z,42.30
2019-04-06T02:39:59.241Z,43.23
2019-04-06T02:42:53.981Z,42.05
2019-04-06T02:45:38.240Z,43.00
2019-04-06T02:48:22.783Z,41.70
2019-04-06T02:51:06.917Z,40.77
2019-04-06T02:53:39.195Z,40.60
2019-04-06T02:56:22.905Z,38.77
2019-04-06T02:59:07.007Z,37.47
2019-04-06T03:01:51.499Z,36.77
2019-04-06T03:04:35.358Z,37.10
2019-04-06T03:07:20.469Z,36.50
2019-04-06T03:10:08.413Z,35.83
2019-04-06T03:12:52.730Z,36.23
2019-04-06T03:15:36.776Z,35.03
2019-04-06T03:18:20.588Z,33.63
2019-04-06T03:21:05.118Z,34.80
2019-04-06T03:23:52.117Z,33.27
2019-04-06T03:26:36.217Z,30.63
2019-04-06T03:29:20.485Z,30.60
2019-04-06T03:32:04.450Z,29.67
2019-04-06T03:34:52.517Z,32.45
2019-04-06T03:37:36.437Z,31.80
2019-04-06T03:40:20.432Z,33.33
2019-04-06T03:43:05.580Z,30.67
2019-04-06T03:45:49.619Z,34.40
2019-04-06T03:48:34.836Z,34.63
2019-04-06T03:51:18.496Z,36.53
2019-04-06T03:54:03.231Z,37.03
2019-04-06T03:56:47.968Z,36.70
2019-04-06T03:59:32.183Z,33.77
2019-04-06T04:02:18.795Z,33.90
2019-04-06T04:05:04.665Z,33.60
2019-04-06T04:07:48.852Z,32.03
2019-04-06T04:10:33.013Z,34.88
2019-04-06T04:13:05.960Z,36.90
2019-04-06T04:15:49.559Z,38.83
2019-04-06T04:18:33.522Z,41.00
2019-04-06T04:21:18.931Z,39.13
2019-04-06T04:24:02.088Z,38.15
2019-04-06T04:26:46.072Z,40.20
2019-04-06T04:29:30.298Z,41.00
2019-04-06T04:32:14.607Z,47.50
2019-04-06T04:35:00.081Z,47.13
2019-04-06T04:37:43.972Z,51.47
2019-04-06T04:40:28.191Z,47.03
2019-04-06T04:43:11.859Z,50.57
2019-04-06T04:45:45.299Z,49.16
2019-04-06T04:48:30.110Z,50.37
2019-04-06T04:51:13.706Z,52.43
2019-04-06T04:53:59.255Z,50.47
2019-04-06T04:56:44.852Z,50.78
2019-04-06T04:59:17.664Z,56.50
2019-04-06T05:02:01.891Z,53.37
2019-04-06T05:04:46.380Z,52.30
2019-04-06T05:07:30.793Z,51.97
2019-04-06T05:10:15.141Z,48.48
2019-04-06T05:13:01.027Z,44.23
2019-04-06T05:16:06.915Z,47.43
2019-04-06T05:18:52.461Z,44.50
2019-04-06T05:21:36.913Z,39.23
2019-04-06T05:24:09.179Z,37.33
2019-04-06T05:26:53.698Z,38.50
2019-04-06T05:29:38.219Z,37.27
2019-04-06T05:32:23.405Z,39.43
2019-04-06T05:35:07.568Z,39.57
2019-04-06T05:37:52.251Z,45.83
2019-04-06T05:40:40.111Z,46.18
2019-04-06T05:43:25.318Z,47.17
2019-04-06T05:45:59.675Z,50.77
2019-04-06T05:48:32.418Z,51.80
2019-04-06T05:51:18.084Z,54.93
2019-04-06T05:54:02.332Z,52.30
2019-04-06T05:56:46.146Z,52.20
2019-04-06T05:59:18.483Z,55.47
2019-04-06T06:02:02.793Z,53.55
2019-04-06T06:04:47.087Z,54.70
2019-04-06T06:07:31.637Z,52.03
2019-04-06T06:10:16.243Z,51.77
2019-04-06T06:13:02.222Z,48.97
2019-04-06T06:15:45.466Z,48.30
2019-04-06T06:18:29.551Z,51.23
2019-04-06T06:21:14.311Z,50.83
2019-04-06T06:23:58.692Z,51.65
2019-04-06T06:26:46.636Z,54.77
2019-04-06T06:29:30.587Z,53.47
2019-04-06T06:32:15.316Z,52.90
2019-04-06T06:34:59.585Z,53.10
2019-04-06T06:37:43.777Z,56.33
2019-04-06T06:40:27.066Z,55.97
2019-04-06T06:43:10.136Z,53.77
2019-04-06T06:45:54.134Z,55.43
2019-04-06T06:48:38.714Z,57.23
2019-04-06T06:51:22.941Z,57.90
2019-04-06T06:54:07.894Z,57.00
2019-04-06T06:56:52.473Z,57.98
2019-04-06T06:59:40.090Z,58.07
2019-04-06T07:02:28.061Z,57.62
2019-04-06T07:05:11.667Z,59.97
2019-04-06T07:07:56.030Z,57.50
2019-04-06T07:10:40.378Z,59.13
2019-04-06T07:13:24.458Z,60.10
2019-04-06T07:16:08.984Z,63.02
2019-04-06T07:18:57.493Z,61.40
2019-04-06T07:21:41.723Z,61.60
2019-04-06T07:24:26.425Z,61.93
2019-04-06T07:27:10.357Z,62.97
2019-04-06T07:29:55.832Z,62.20
2019-04-06T07:32:40.385Z,62.93
2019-04-06T07:35:25.521Z,63.70
2019-04-06T07:38:09.528Z,64.00
2019-04-06T07:40:55.712Z,65.97
2019-04-06T07:43:40.326Z,66.30
2019-04-06T07:46:24.347Z,62.40
2019-04-06T07:49:10.019Z,67.07
2019-04-06T07:51:53.849Z,68.73
2019-04-06T07:54:37.776Z,66.37
2019-04-06T07:57:21.708Z,65.83
2019-04-06T08:00:06.655Z,66.93
2019-04-06T08:02:50.366Z,67.97
2019-04-06T08:05:34.056Z,69.17
2019-04-06T08:08:18.064Z,68.62
2019-04-06T08:11:03.186Z,69.30
2019-04-06T08:13:46.719Z,68.53
2019-04-06T08:16:30.679Z,68.13
2019-04-06T08:19:15.423Z,73.77
2019-04-06T08:22:00.319Z,68.17
2019-04-06T08:24:48.148Z,66.50
2019-04-06T08:27:33.648Z,68.50
2019-04-06T08:33:27.724Z,69.92
2019-04-06T08:36:11.814Z,71.70
2019-04-06T08:38:45.044Z,68.83
2019-04-06T08:41:28.802Z,69.53
2019-04-06T08:44:12.677Z,68.27
2019-04-06T08:46:57.248Z,67.53
2019-04-06T08:49:40.897Z,67.82
2019-04-06T08:52:25.228Z,66.50
2019-04-06T08:55:09.563Z,67.50
2019-04-06T08:57:43.080Z,67.97
2019-04-06T09:00:28.485Z,69.90
2019-04-06T09:03:12.852Z,66.87
2019-04-06T09:05:56.794Z,69.53
2019-04-06T09:08:42.412Z,70.00
2019-04-06T09:11:27.517Z,67.27
2019-04-06T09:14:13.954Z,65.30
2019-04-06T09:16:58.442Z,65.33
2019-04-06T09:19:43.252Z,66.20
2019-04-06T09:22:27.601Z,62.70
2019-04-06T09:25:11.342Z,61.25
2019-04-06T09:27:55.183Z,62.77
2019-04-06T09:30:39.854Z,62.88
2019-04-06T09:33:24.427Z,57.90
2019-04-06T09:36:08.039Z,62.50
2019-04-06T09:38:52.310Z,58.83
2019-04-06T09:41:38.706Z,60.10
2019-04-06T09:47:55.898Z,58.00
2019-04-06T09:51:05.244Z,57.77
2019-04-06T09:54:09.067Z,58.60
2019-04-06T09:57:10.421Z,52.50
2019-04-06T09:59:59.714Z,56.20
2019-04-06T10:03:03.482Z,55.57
2019-04-06T10:09:20.889Z,56.93
2019-04-06T10:12:24.561Z,54.97
2019-04-06T10:15:19.330Z,53.87
2019-04-06T10:18:19.153Z,51.00
2019-04-06T10:21:17.481Z,53.37
2019-04-06T10:24:23.138Z,53.40
2019-04-06T10:27:46.908Z,52.95
2019-04-06T10:30:50.154Z,51.07
2019-04-06T10:33:53.067Z,51.13
2019-04-06T10:37:01.981Z,48.83
2019-04-06T10:42:54.907Z,48.05
2019-04-06T10:45:58.717Z,48.67
2019-04-06T10:48:49.810Z,44.23
2019-04-06T10:51:53.864Z,45.70
2019-04-06T10:54:57.094Z,44.80
2019-04-06T10:57:59.173Z,44.27
2019-04-06T11:00:39.874Z,43.53
2019-04-06T11:03:47.749Z,43.17
2019-04-06T11:06:42.641Z,43.95
2019-04-06T11:09:45.797Z,41.80
2019-04-06T11:12:49.103Z,40.30
2019-04-06T11:15:52.426Z,41.17
2019-04-06T11:18:55.769Z,38.88
2019-04-06T11:22:01.997Z,38.73
2019-04-06T11:25:05.387Z,38.97
2019-04-06T11:28:11.683Z,38.40
2019-04-06T11:31:14.946Z,39.47
2019-04-06T11:34:15.878Z,33.90
2019-04-06T11:37:14.031Z,30.70
2019-04-06T11:40:27.354Z,31.73
2019-04-06T11:43:30.752Z,34.33
2019-04-06T11:49:26.578Z,31.20
2019-04-06T11:52:30.033Z,30.75
2019-04-06T11:55:33.594Z,32.78
2019-04-06T11:58:27.061Z,36.50
2019-04-06T12:01:32.773Z,31.90
2019-04-06T12:07:40.324Z,29.47
2019-04-06T12:10:50.326Z,28.90
2019-04-06T12:13:53.018Z,28.00
2019-04-06T12:17:08.827Z,26.17
2019-04-06T12:20:12.118Z,31.00
2019-04-06T12:22:51.279Z,27.45
2019-04-06T12:25:45.097Z,26.90
2019-04-06T12:28:54.348Z,23.43
2019-04-06T12:31:44.844Z,25.27
2019-04-06T12:34:42.654Z,26.50
2019-04-06T12:37:34.822Z,24.57
2019-04-06T12:46:42.405Z,23.92
2019-04-06T12:49:46.270Z,20.63
2019-04-06T12:52:49.507Z,21.63
2019-04-06T12:55:55.955Z,22.07
2019-04-06T12:59:07.315Z,23.03
2019-04-06T13:02:14.340Z,21.23
2019-04-06T13:05:18.095Z,20.80
2019-04-06T13:08:20.573Z,21.47
2019-04-06T13:11:11.819Z,23.27
2019-04-06T13:14:15.550Z,21.60
2019-04-06T13:17:24.554Z,22.25
2019-04-06T13:20:33.728Z,24.75
2019-04-06T13:23:39.698Z,25.20
2019-04-06T13:26:59.578Z,26.85
2019-04-06T13:29:52.264Z,27.97
2019-04-06T13:35:58.876Z,30.90
2019-04-06T13:39:07.957Z,29.23
2019-04-06T13:42:14.458Z,31.47
2019-04-06T13:45:31.830Z,29.70
2019-04-06T13:48:36.250Z,30.97
2019-04-06T13:51:41.492Z,29.50
2019-04-06T13:54:44.793Z,30.63
2019-04-06T13:57:48.929Z,30.40
2019-04-06T14:00:47.691Z,32.07
2019-04-06T14:03:56.739Z,31.67
2019-04-06T14:06:59.932Z,33.25
2019-04-06T14:09:57.117Z,29.72
2019-04-06T14:12:56.068Z,30.10
2019-04-06T14:15:59.381Z,28.60
2019-04-06T14:19:02.988Z,29.00
2019-04-06T14:22:06.286Z,28.73
2019-04-06T14:24:57.253Z,26.68
2019-04-06T14:27:52.772Z,24.50
2019-04-06T14:30:55.761Z,23.22
2019-04-06T14:33:49.971Z,21.63
2019-04-06T14:37:11.476Z,20.17
2019-04-06T14:40:15.583Z,20.45
2019-04-06T14:43:21.197Z,19.42
2019-04-06T14:46:20.284Z,20.10
2019-04-06T14:49:31.466Z,19.40
2019-04-06T14:52:32.425Z,18.27
2019-04-06T14:55:37.689Z,18.87
2019-04-06T14:58:38.091Z,18.33
2019-04-06T15:01:55.048Z,19.17
2019-04-06T15:04:42.310Z,19.67
2019-04-06T15:07:59.828Z,17.53
2019-04-06T15:10:58.816Z,17.90
2019-04-06T15:14:06.700Z,18.87
2019-04-06T15:17:10.946Z,18.93
2019-04-06T15:20:03.381Z,20.47
2019-04-06T15:23:17.297Z,19.13
2019-04-06T15:26:08.550Z,18.07
2019-04-06T15:29:04.082Z,18.70
2019-04-06T15:32:07.358Z,19.47
2019-04-06T15:34:58.591Z,19.07
2019-04-06T15:37:59.123Z,19.10
2019-04-06T15:40:54.035Z,18.63
2019-04-06T15:43:46.353Z,18.57
2019-04-06T15:46:53.685Z,19.20
2019-04-06T15:49:57.633Z,18.15
2019-04-06T15:52:47.064Z,19.40
2019-04-06T15:55:52.558Z,18.93
2019-04-06T16:02:22.819Z,19.17
2019-04-06T16:05:26.388Z,19.70
2019-04-06T16:08:20.318Z,19.50
2019-04-06T16:11:24.486Z,19.70
2019-04-06T16:14:29.566Z,18.77
2019-04-06T16:17:13.663Z,17.80
2019-04-06T16:20:16.156Z,18.80
2019-04-06T16:23:16.921Z,18.63
2019-04-06T16:26:08.451Z,17.97
2019-04-06T16:29:11.539Z,18.37
2019-04-06T16:32:17.386Z,19.52
2019-04-06T16:35:21.169Z,18.57
2019-04-06T16:38:15.662Z,17.67
2019-04-06T16:41:19.665Z,17.83
2019-04-06T16:44:24.102Z,18.13
2019-04-06T16:47:30.015Z,18.50
2019-04-06T16:50:27.648Z,18.53
2019-04-06T16:53:30.982Z,26.17
2019-04-06T16:56:36.488Z,31.97
2019-04-06T16:59:28.017Z,33.13
2019-04-06T17:05:27.204Z,33.87
2019-04-06T17:11:41.310Z,35.60
2019-04-06T17:14:52.006Z,35.33
2019-04-06T17:17:57.929Z,35.87
2019-04-06T17:20:49.399Z,34.53
2019-04-06T17:23:43.301Z,36.83
2019-04-06T17:26:53.572Z,37.17
2019-04-06T17:30:11.354Z,37.83
2019-04-06T17:33:15.180Z,36.73
2019-04-06T17:36:08.709Z,37.43
2019-04-06T17:39:13.913Z,39.23
2019-04-06T17:42:17.843Z,37.97
2019-04-06T17:45:21.060Z,36.17
2019-04-06T17:48:29.848Z,36.80
2019-04-06T17:51:40.854Z,36.60
2019-04-06T17:54:44.890Z,35.90
2019-04-06T17:57:37.029Z,37.67
2019-04-06T18:00:46.603Z,35.43
2019-04-06T18:03:51.901Z,36.17
2019-04-06T18:06:58.054Z,36.23
2019-04-06T18:10:01.590Z,37.63
2019-04-06T18:12:55.380Z,36.47
2019-04-06T18:15:40.513Z,36.97
2019-04-06T18:18:25.882Z,36.47
2019-04-06T18:21:10.107Z,38.00
2019-04-06T18:23:56.579Z,37.90
2019-04-06T18:26:42.069Z,37.38
2019-04-06T18:29:26.654Z,38.00
2019-04-06T18:35:21.505Z,38.57
2019-04-06T18:38:24.189Z,38.85
2019-04-06T18:41:09.505Z,38.40
2019-04-06T18:43:41.866Z,37.57
2019-04-06T18:46:26.004Z,38.20
2019-04-06T18:49:12.475Z,35.37
2019-04-06T18:51:56.097Z,34.25
2019-04-06T18:54:40.603Z,36.20
2019-04-06T18:57:25.361Z,34.30
2019-04-06T19:00:11.766Z,31.93
2019-04-06T19:02:55.583Z,32.80
2019-04-06T19:05:43.302Z,31.17
2019-04-06T19:08:27.398Z,31.47
2019-04-06T19:11:11.455Z,31.23
2019-04-06T19:13:56.576Z,32.03
2019-04-06T19:16:40.238Z,31.23
2019-04-06T19:19:24.837Z,30.90
2019-04-06T19:22:13.544Z,31.87
2019-04-06T19:24:59.311Z,29.52
2019-04-06T19:27:43.641Z,31.82
2019-04-06T19:30:29.063Z,33.55
2019-04-06T19:33:22.716Z,30.47
2019-04-06T19:35:58.825Z,34.23
2019-04-06T19:38:43.133Z,32.13
2019-04-06T19:41:27.114Z,35.37
2019-04-06T19:43:59.993Z,33.30
2019-04-06T19:46:32.879Z,34.13
2019-04-06T19:49:17.960Z,34.73
2019-04-06T19:52:01.997Z,37.63
2019-04-06T19:54:46.114Z,35.25
2019-04-06T19:57:31.652Z,35.43
2019-04-06T20:00:16.730Z,36.10
2019-04-06T20:03:00.646Z,36.23
2019-04-06T20:05:44.838Z,36.03
2019-04-06T20:08:28.959Z,36.87
2019-04-06T20:11:12.893Z,36.60
2019-04-06T20:13:57.488Z,35.03
2019-04-06T20:16:43.651Z,35.17
2019-04-06T20:19:27.586Z,36.60
2019-04-06T20:22:00.505Z,36.83
2019-04-06T20:24:44.376Z,36.57
2019-04-06T20:27:28.945Z,37.13
2019-04-06T20:30:13.161Z,38.00
2019-04-06T20:32:58.535Z,37.93
2019-04-06T20:35:42.800Z,36.67
2019-04-06T20:38:29.946Z,36.27
2019-04-06T20:41:14.121Z,37.43
2019-04-06T20:43:58.721Z,37.47
2019-04-06T20:46:42.988Z,37.53
2019-04-06T20:49:28.874Z,36.20
2019-04-06T20:52:12.579Z,37.80
2019-04-06T20:54:56.988Z,37.83
2019-04-06T20:57:42.937Z,37.97
2019-04-06T21:00:28.775Z,38.10
2019-04-06T21:03:12.413Z,38.03
2019-04-06T21:05:44.731Z,39.75
2019-04-06T21:08:29.718Z,37.30
2019-04-06T21:11:14.090Z,38.05
2019-04-06T21:13:58.592Z,39.98
2019-04-06T21:16:30.894Z,37.98
2019-04-06T21:19:29.054Z,41.73
2019-04-06T21:22:13.493Z,37.80
2019-04-06T21:24:58.419Z,40.33
2019-04-06T21:27:44.157Z,41.13
2019-04-06T21:30:18.166Z,40.45
2019-04-06T21:33:02.265Z,40.77
2019-04-06T21:35:49.012Z,39.60
2019-04-06T21:38:22.805Z,41.17
2019-04-06T21:41:07.285Z,41.68
2019-04-06T21:43:52.161Z,40.37
2019-04-06T21:46:26.248Z,40.73
2019-04-06T21:49:09.902Z,40.73
2019-04-06T21:51:42.175Z,41.47
2019-04-06T21:54:26.478Z,42.00
2019-04-06T21:57:10.695Z,41.13
2019-04-06T21:59:55.518Z,42.17
2019-04-06T22:02:40.251Z,41.57
2019-04-06T22:05:24.113Z,42.33
2019-04-06T22:08:08.447Z,41.80
2019-04-06T22:10:40.825Z,44.20
2019-04-06T22:13:25.070Z,44.53
2019-04-06T22:16:11.430Z,45.50
2019-04-06T22:18:56.437Z,43.78
2019-04-06T22:21:45.342Z,43.37
2019-04-06T22:24:18.640Z,45.43
2019-04-06T22:27:16.010Z,46.70
2019-04-06T22:30:00.498Z,45.27
2019-04-06T22:32:43.603Z,43.40
2019-04-06T22:35:32.836Z,45.43
2019-04-06T22:38:17.119Z,46.88
2019-04-06T22:41:05.146Z,47.80
2019-04-06T22:43:37.808Z,45.60
2019-04-06T22:46:22.273Z,46.37
2019-04-06T22:49:06.563Z,46.27
2019-04-06T22:51:51.584Z,44.27
2019-04-06T22:54:35.788Z,45.20
2019-04-06T22:57:20.331Z,45.67
2019-04-06T23:00:10.140Z,45.60
2019-04-06T23:06:18.026Z,48.00
2019-04-06T23:09:02.036Z,46.60
2019-04-06T23:11:50.454Z,47.53
2019-04-06T23:14:34.247Z,47.73
2019-04-06T23:17:18.978Z,49.67
2019-04-06T23:20:07.443Z,46.77
2019-04-06T23:22:55.828Z,50.17
2019-04-06T23:25:39.869Z,47.58
2019-04-06T23:28:23.963Z,47.45
2019-04-06T23:31:08.211Z,47.38
2019-04-06T23:33:52.944Z,47.03
2019-04-06T23:36:36.802Z,47.98
2019-04-06T23:39:21.777Z,49.00
2019-04-06T23:42:08.466Z,48.30
2019-04-06T23:44:52.363Z,49.43
2019-04-06T23:47:36.425Z,50.50
2019-04-06T23:50:26.259Z,51.27
2019-04-06T23:53:21.330Z,49.77
2019-04-06T23:56:10.125Z,49.17
2019-04-06T23:58:54.596Z,48.87
